sensor_id;sensor_type;location;lat;lon;timestamp;P1;durP1;ratioP1;P2;durP2;ratioP2
74495;SDS011;62979;55.720;37.606;2022-12-13T00:02:08;4.00;;;3.70;;
74495;SDS011;62979;55.720;37.606;2022-12-13T00:04:35;4.88;;;4.07;;
74495;SDS011;62979;55.720;37.606;2022-12-13T00:07:02;4.20;;;3.75;;
74495;SDS011;62979;55.720;37.606;2022-12-13T00:09:30;5.20;;;4.47;;
74495;SDS011;62979;55.720;37.606;2022-12-13T00:11:57;4.10;;;3.15;;
74495;SDS011;62979;55.720;37.606;2022-12-13T00:14:24;4.82;;;4.43;;
74495;SDS011;62979;55.720;37.606;2022-12-13T00:16:51;5.03;;;4.55;;
74495;SDS011;62979;55.720;37.606;2022-12-13T00:19:18;5.03;;;4.53;;
74495;SDS011;62979;55.720;37.606;2022-12-13T00:21:45;5.00;;;4.45;;
74495;SDS011;62979;55.720;37.606;2022-12-13T00:24:12;4.72;;;4.22;;
74495;SDS011;62979;55.720;37.606;2022-12-13T00:26:41;3.65;;;3.35;;
74495;SDS011;62979;55.720;37.606;2022-12-13T00:29:09;5.00;;;4.13;;
74495;SDS011;62979;55.720;37.606;2022-12-13T00:31:37;5.40;;;4.65;;
74495;SDS011;62979;55.720;37.606;2022-12-13T00:34:04;6.03;;;5.18;;
74495;SDS011;62979;55.720;37.606;2022-12-13T00:36:31;3.28;;;2.97;;
74495;SDS011;62979;55.720;37.606;2022-12-13T00:38:58;5.40;;;4.75;;
74495;SDS011;62979;55.720;37.606;2022-12-13T00:41:28;5.85;;;5.18;;
74495;SDS011;62979;55.720;37.606;2022-12-13T00:43:58;4.50;;;4.07;;
74495;SDS011;62979;55.720;37.606;2022-12-13T00:46:27;5.35;;;4.85;;
74495;SDS011;62979;55.720;37.606;2022-12-13T00:48:55;4.65;;;4.00;;
74495;SDS011;62979;55.720;37.606;2022-12-13T00:51:25;4.00;;;3.58;;
74495;SDS011;62979;55.720;37.606;2022-12-13T00:53:54;5.25;;;3.88;;
74495;SDS011;62979;55.720;37.606;2022-12-13T00:56:22;5.20;;;4.65;;
74495;SDS011;62979;55.720;37.606;2022-12-13T00:58:52;6.03;;;4.35;;
74495;SDS011;62979;55.720;37.606;2022-12-13T01:03:49;4.78;;;4.07;;
74495;SDS011;62979;55.720;37.606;2022-12-13T01:06:19;4.80;;;4.00;;
74495;SDS011;62979;55.720;37.606;2022-12-13T01:08:51;6.68;;;4.90;;
74495;SDS011;62979;55.720;37.606;2022-12-13T01:11:18;5.57;;;5.05;;
74495;SDS011;62979;55.720;37.606;2022-12-13T01:13:45;6.25;;;4.60;;
74495;SDS011;62979;55.720;37.606;2022-12-13T01:16:12;3.30;;;2.97;;
74495;SDS011;62979;55.720;37.606;2022-12-13T01:18:41;3.85;;;2.88;;
74495;SDS011;62979;55.720;37.606;2022-12-13T01:21:11;5.15;;;4.32;;
74495;SDS011;62979;55.720;37.606;2022-12-13T01:23:40;5.45;;;3.95;;
74495;SDS011;62979;55.720;37.606;2022-12-13T01:26:09;5.90;;;4.60;;
74495;SDS011;62979;55.720;37.606;2022-12-13T01:28:39;4.90;;;4.13;;
74495;SDS011;62979;55.720;37.606;2022-12-13T01:31:08;5.30;;;4.43;;
74495;SDS011;62979;55.720;37.606;2022-12-13T01:33:36;6.03;;;4.65;;
74495;SDS011;62979;55.720;37.606;2022-12-13T01:36:06;5.88;;;4.80;;
74495;SDS011;62979;55.720;37.606;2022-12-13T01:38:36;4.63;;;4.18;;
74495;SDS011;62979;55.720;37.606;2022-12-13T01:41:03;5.75;;;5.07;;
74495;SDS011;62979;55.720;37.606;2022-12-13T01:46:18;7.28;;;4.72;;
74495;SDS011;62979;55.720;37.606;2022-12-13T01:48:46;5.82;;;5.05;;
74495;SDS011;62979;55.720;37.606;2022-12-13T01:51:25;6.82;;;5.10;;
74495;SDS011;62979;55.720;37.606;2022-12-13T01:53:59;5.38;;;4.35;;
74495;SDS011;62979;55.720;37.606;2022-12-13T01:56:31;5.63;;;4.57;;
74495;SDS011;62979;55.720;37.606;2022-12-13T01:59:04;5.05;;;4.38;;
74495;SDS011;62979;55.720;37.606;2022-12-13T02:01:34;6.22;;;4.88;;
74495;SDS011;62979;55.720;37.606;2022-12-13T02:06:31;5.70;;;4.50;;
74495;SDS011;62979;55.720;37.606;2022-12-13T02:09:03;7.20;;;4.57;;
74495;SDS011;62979;55.720;37.606;2022-12-13T02:11:32;4.22;;;2.28;;
74495;SDS011;62979;55.720;37.606;2022-12-13T02:14:04;6.72;;;5.22;;
74495;SDS011;62979;55.720;37.606;2022-12-13T02:16:35;5.32;;;4.78;;
74495;SDS011;62979;55.720;37.606;2022-12-13T02:19:25;5.40;;;4.88;;
74495;SDS011;62979;55.720;37.606;2022-12-13T02:22:51;5.78;;;4.57;;
74495;SDS011;62979;55.720;37.606;2022-12-13T02:25:45;7.28;;;4.45;;
74495;SDS011;62979;55.720;37.606;2022-12-13T02:28:45;6.45;;;5.25;;
74495;SDS011;62979;55.720;37.606;2022-12-13T02:31:38;7.20;;;5.13;;
74495;SDS011;62979;55.720;37.606;2022-12-13T02:34:17;8.77;;;5.05;;
74495;SDS011;62979;55.720;37.606;2022-12-13T02:36:55;6.35;;;4.90;;
74495;SDS011;62979;55.720;37.606;2022-12-13T02:39:31;5.80;;;4.97;;
74495;SDS011;62979;55.720;37.606;2022-12-13T02:42:05;6.28;;;5.10;;
74495;SDS011;62979;55.720;37.606;2022-12-13T02:44:42;4.75;;;4.35;;
74495;SDS011;62979;55.720;37.606;2022-12-13T02:47:21;6.65;;;4.75;;
74495;SDS011;62979;55.720;37.606;2022-12-13T02:49:53;5.93;;;4.38;;
74495;SDS011;62979;55.720;37.606;2022-12-13T02:52:25;5.47;;;3.75;;
74495;SDS011;62979;55.720;37.606;2022-12-13T02:54:56;4.45;;;3.97;;
74495;SDS011;62979;55.720;37.606;2022-12-13T02:57:27;4.30;;;3.85;;
74495;SDS011;62979;55.720;37.606;2022-12-13T02:59:57;5.53;;;4.45;;
74495;SDS011;62979;55.720;37.606;2022-12-13T03:02:35;4.78;;;3.95;;
74495;SDS011;62979;55.720;37.606;2022-12-13T03:05:22;5.35;;;4.85;;
74495;SDS011;62979;55.720;37.606;2022-12-13T03:08:21;5.50;;;4.80;;
74495;SDS011;62979;55.720;37.606;2022-12-13T03:10:58;5.50;;;4.80;;
74495;SDS011;62979;55.720;37.606;2022-12-13T03:13:33;5.75;;;4.35;;
74495;SDS011;62979;55.720;37.606;2022-12-13T03:16:16;4.72;;;3.92;;
74495;SDS011;62979;55.720;37.606;2022-12-13T03:19:02;5.55;;;4.95;;
74495;SDS011;62979;55.720;37.606;2022-12-13T03:21:36;5.10;;;4.60;;
74495;SDS011;62979;55.720;37.606;2022-12-13T03:24:05;4.90;;;4.40;;
74495;SDS011;62979;55.720;37.606;2022-12-13T03:26:32;4.88;;;3.97;;
74495;SDS011;62979;55.720;37.606;2022-12-13T03:29:02;6.38;;;5.65;;
74495;SDS011;62979;55.720;37.606;2022-12-13T03:31:29;5.72;;;4.35;;
74495;SDS011;62979;55.720;37.606;2022-12-13T03:33:57;4.85;;;4.35;;
74495;SDS011;62979;55.720;37.606;2022-12-13T03:36:25;5.07;;;3.83;;
74495;SDS011;62979;55.720;37.606;2022-12-13T03:38:52;7.03;;;5.03;;
74495;SDS011;62979;55.720;37.606;2022-12-13T03:41:21;4.47;;;3.97;;
74495;SDS011;62979;55.720;37.606;2022-12-13T03:43:55;5.40;;;4.28;;
74495;SDS011;62979;55.720;37.606;2022-12-13T03:46:22;5.32;;;4.57;;
74495;SDS011;62979;55.720;37.606;2022-12-13T03:48:49;5.05;;;4.65;;
74495;SDS011;62979;55.720;37.606;2022-12-13T03:51:16;7.00;;;4.88;;
74495;SDS011;62979;55.720;37.606;2022-12-13T03:53:44;6.10;;;4.15;;
74495;SDS011;62979;55.720;37.606;2022-12-13T03:56:11;4.32;;;3.53;;
74495;SDS011;62979;55.720;37.606;2022-12-13T03:58:38;4.57;;;3.97;;
74495;SDS011;62979;55.720;37.606;2022-12-13T04:01:06;3.92;;;3.53;;
74495;SDS011;62979;55.720;37.606;2022-12-13T04:03:37;4.50;;;3.85;;
74495;SDS011;62979;55.720;37.606;2022-12-13T04:06:06;4.30;;;3.72;;
74495;SDS011;62979;55.720;37.606;2022-12-13T04:11:03;5.60;;;3.67;;
74495;SDS011;62979;55.720;37.606;2022-12-13T04:13:46;3.92;;;3.53;;
74495;SDS011;62979;55.720;37.606;2022-12-13T04:16:13;4.53;;;3.97;;
74495;SDS011;62979;55.720;37.606;2022-12-13T04:18:40;5.47;;;4.25;;
74495;SDS011;62979;55.720;37.606;2022-12-13T04:21:06;5.03;;;3.17;;
74495;SDS011;62979;55.720;37.606;2022-12-13T04:23:33;5.70;;;5.10;;
74495;SDS011;62979;55.720;37.606;2022-12-13T04:26:00;4.78;;;4.30;;
74495;SDS011;62979;55.720;37.606;2022-12-13T04:28:29;4.43;;;3.42;;
74495;SDS011;62979;55.720;37.606;2022-12-13T04:33:23;5.47;;;4.93;;
74495;SDS011;62979;55.720;37.606;2022-12-13T04:35:50;4.90;;;4.40;;
74495;SDS011;62979;55.720;37.606;2022-12-13T04:38:17;6.28;;;5.30;;
74495;SDS011;62979;55.720;37.606;2022-12-13T04:40:45;4.35;;;3.67;;
74495;SDS011;62979;55.720;37.606;2022-12-13T04:43:12;5.00;;;4.50;;
74495;SDS011;62979;55.720;37.606;2022-12-13T04:45:40;5.15;;;3.83;;
74495;SDS011;62979;55.720;37.606;2022-12-13T04:48:07;7.57;;;5.45;;
74495;SDS011;62979;55.720;37.606;2022-12-13T04:50:34;6.22;;;5.63;;
74495;SDS011;62979;55.720;37.606;2022-12-13T04:53:01;4.00;;;3.60;;
74495;SDS011;62979;55.720;37.606;2022-12-13T04:55:28;4.18;;;3.72;;
74495;SDS011;62979;55.720;37.606;2022-12-13T04:57:55;6.07;;;5.57;;
74495;SDS011;62979;55.720;37.606;2022-12-13T05:00:22;5.63;;;4.45;;
74495;SDS011;62979;55.720;37.606;2022-12-13T05:02:51;6.78;;;5.30;;
74495;SDS011;62979;55.720;37.606;2022-12-13T05:05:17;6.10;;;5.30;;
74495;SDS011;62979;55.720;37.606;2022-12-13T05:07:44;5.78;;;4.60;;
74495;SDS011;62979;55.720;37.606;2022-12-13T05:10:12;5.75;;;5.15;;
74495;SDS011;62979;55.720;37.606;2022-12-13T05:12:39;4.75;;;4.25;;
74495;SDS011;62979;55.720;37.606;2022-12-13T05:15:06;6.10;;;4.90;;
74495;SDS011;62979;55.720;37.606;2022-12-13T05:17:34;5.57;;;5.07;;
74495;SDS011;62979;55.720;37.606;2022-12-13T05:20:02;5.30;;;3.65;;
74495;SDS011;62979;55.720;37.606;2022-12-13T05:22:30;6.18;;;4.10;;
74495;SDS011;62979;55.720;37.606;2022-12-13T05:24:57;5.47;;;5.00;;
74495;SDS011;62979;55.720;37.606;2022-12-13T05:27:24;6.68;;;5.13;;
74495;SDS011;62979;55.720;37.606;2022-12-13T05:29:51;7.40;;;5.80;;
74495;SDS011;62979;55.720;37.606;2022-12-13T05:32:18;7.10;;;4.78;;
74495;SDS011;62979;55.720;37.606;2022-12-13T05:34:45;6.45;;;4.85;;
74495;SDS011;62979;55.720;37.606;2022-12-13T05:37:13;6.40;;;5.72;;
74495;SDS011;62979;55.720;37.606;2022-12-13T05:39:40;7.13;;;4.85;;
74495;SDS011;62979;55.720;37.606;2022-12-13T05:42:08;7.93;;;5.45;;
74495;SDS011;62979;55.720;37.606;2022-12-13T05:44:35;5.60;;;4.97;;
74495;SDS011;62979;55.720;37.606;2022-12-13T05:47:02;8.43;;;4.22;;
74495;SDS011;62979;55.720;37.606;2022-12-13T05:49:29;6.82;;;5.70;;
74495;SDS011;62979;55.720;37.606;2022-12-13T05:51:56;7.85;;;6.32;;
74495;SDS011;62979;55.720;37.606;2022-12-13T05:54:24;5.07;;;4.53;;
74495;SDS011;62979;55.720;37.606;2022-12-13T05:56:51;7.57;;;5.05;;
74495;SDS011;62979;55.720;37.606;2022-12-13T05:59:18;7.43;;;5.20;;
74495;SDS011;62979;55.720;37.606;2022-12-13T06:01:45;10.15;;;5.90;;
74495;SDS011;62979;55.720;37.606;2022-12-13T06:04:12;7.22;;;5.68;;
74495;SDS011;62979;55.720;37.606;2022-12-13T06:06:39;7.07;;;5.50;;
74495;SDS011;62979;55.720;37.606;2022-12-13T06:09:05;6.20;;;4.90;;
74495;SDS011;62979;55.720;37.606;2022-12-13T06:11:34;4.35;;;2.72;;
74495;SDS011;62979;55.720;37.606;2022-12-13T06:14:01;7.63;;;6.43;;
74495;SDS011;62979;55.720;37.606;2022-12-13T06:16:27;5.93;;;5.30;;
74495;SDS011;62979;55.720;37.606;2022-12-13T06:18:54;6.63;;;5.70;;
74495;SDS011;62979;55.720;37.606;2022-12-13T06:21:21;6.65;;;5.95;;
74495;SDS011;62979;55.720;37.606;2022-12-13T06:23:48;6.55;;;5.80;;
74495;SDS011;62979;55.720;37.606;2022-12-13T06:26:15;6.43;;;5.00;;
74495;SDS011;62979;55.720;37.606;2022-12-13T06:28:43;5.72;;;5.05;;
74495;SDS011;62979;55.720;37.606;2022-12-13T06:31:10;6.43;;;5.22;;
74495;SDS011;62979;55.720;37.606;2022-12-13T06:33:37;6.00;;;5.07;;
74495;SDS011;62979;55.720;37.606;2022-12-13T06:36:04;7.97;;;5.20;;
74495;SDS011;62979;55.720;37.606;2022-12-13T06:38:33;7.55;;;5.53;;
74495;SDS011;62979;55.720;37.606;2022-12-13T06:41:06;6.05;;;4.70;;
74495;SDS011;62979;55.720;37.606;2022-12-13T06:43:35;6.53;;;5.93;;
74495;SDS011;62979;55.720;37.606;2022-12-13T06:46:04;7.63;;;6.03;;
74495;SDS011;62979;55.720;37.606;2022-12-13T06:50:59;8.18;;;5.65;;
74495;SDS011;62979;55.720;37.606;2022-12-13T06:53:26;7.45;;;5.53;;
74495;SDS011;62979;55.720;37.606;2022-12-13T06:55:54;9.40;;;7.20;;
74495;SDS011;62979;55.720;37.606;2022-12-13T06:58:21;9.05;;;6.50;;
74495;SDS011;62979;55.720;37.606;2022-12-13T07:00:49;7.15;;;5.82;;
74495;SDS011;62979;55.720;37.606;2022-12-13T07:03:17;9.15;;;6.47;;
74495;SDS011;62979;55.720;37.606;2022-12-13T07:05:44;8.38;;;5.63;;
74495;SDS011;62979;55.720;37.606;2022-12-13T07:08:10;7.25;;;5.32;;
74495;SDS011;62979;55.720;37.606;2022-12-13T07:10:38;6.65;;;5.70;;
74495;SDS011;62979;55.720;37.606;2022-12-13T07:13:05;6.45;;;5.60;;
74495;SDS011;62979;55.720;37.606;2022-12-13T07:15:32;9.75;;;6.53;;
74495;SDS011;62979;55.720;37.606;2022-12-13T07:17:59;6.88;;;5.75;;
74495;SDS011;62979;55.720;37.606;2022-12-13T07:20:27;7.13;;;5.28;;
74495;SDS011;62979;55.720;37.606;2022-12-13T07:22:54;7.13;;;6.43;;
74495;SDS011;62979;55.720;37.606;2022-12-13T07:25:21;8.48;;;6.72;;
74495;SDS011;62979;55.720;37.606;2022-12-13T07:27:54;10.00;;;6.68;;
74495;SDS011;62979;55.720;37.606;2022-12-13T07:30:24;8.35;;;5.82;;
74495;SDS011;62979;55.720;37.606;2022-12-13T07:32:51;8.10;;;6.45;;
74495;SDS011;62979;55.720;37.606;2022-12-13T07:35:18;7.40;;;6.15;;
74495;SDS011;62979;55.720;37.606;2022-12-13T07:37:47;5.40;;;4.45;;
74495;SDS011;62979;55.720;37.606;2022-12-13T07:40:14;8.63;;;7.32;;
74495;SDS011;62979;55.720;37.606;2022-12-13T07:42:47;7.72;;;6.28;;
74495;SDS011;62979;55.720;37.606;2022-12-13T07:45:15;6.97;;;5.80;;
74495;SDS011;62979;55.720;37.606;2022-12-13T07:47:42;7.55;;;4.97;;
74495;SDS011;62979;55.720;37.606;2022-12-13T07:50:09;11.23;;;7.20;;
74495;SDS011;62979;55.720;37.606;2022-12-13T07:52:37;7.80;;;6.18;;
74495;SDS011;62979;55.720;37.606;2022-12-13T07:55:06;8.02;;;6.65;;
74495;SDS011;62979;55.720;37.606;2022-12-13T07:57:34;8.18;;;4.70;;
74495;SDS011;62979;55.720;37.606;2022-12-13T08:00:01;8.25;;;6.53;;
74495;SDS011;62979;55.720;37.606;2022-12-13T08:02:29;9.23;;;6.63;;
74495;SDS011;62979;55.720;37.606;2022-12-13T08:04:56;8.00;;;7.00;;
74495;SDS011;62979;55.720;37.606;2022-12-13T08:07:23;7.13;;;5.25;;
74495;SDS011;62979;55.720;37.606;2022-12-13T08:09:50;9.18;;;6.18;;
74495;SDS011;62979;55.720;37.606;2022-12-13T08:12:20;6.90;;;6.00;;
74495;SDS011;62979;55.720;37.606;2022-12-13T08:14:47;7.60;;;4.60;;
74495;SDS011;62979;55.720;37.606;2022-12-13T08:17:14;7.53;;;5.95;;
74495;SDS011;62979;55.720;37.606;2022-12-13T08:19:41;5.15;;;4.65;;
74495;SDS011;62979;55.720;37.606;2022-12-13T08:22:10;8.25;;;5.78;;
74495;SDS011;62979;55.720;37.606;2022-12-13T08:24:38;9.73;;;6.00;;
74495;SDS011;62979;55.720;37.606;2022-12-13T08:27:05;9.70;;;6.40;;
74495;SDS011;62979;55.720;37.606;2022-12-13T08:29:34;11.77;;;5.50;;
74495;SDS011;62979;55.720;37.606;2022-12-13T08:34:29;8.25;;;5.90;;
74495;SDS011;62979;55.720;37.606;2022-12-13T08:36:56;6.53;;;5.93;;
74495;SDS011;62979;55.720;37.606;2022-12-13T08:39:24;6.07;;;5.22;;
74495;SDS011;62979;55.720;37.606;2022-12-13T08:41:51;8.57;;;4.10;;
74495;SDS011;62979;55.720;37.606;2022-12-13T08:44:18;6.47;;;5.32;;
74495;SDS011;62979;55.720;37.606;2022-12-13T08:46:46;6.75;;;6.10;;
74495;SDS011;62979;55.720;37.606;2022-12-13T08:49:13;9.00;;;5.15;;
74495;SDS011;62979;55.720;37.606;2022-12-13T08:51:40;9.13;;;5.65;;
74495;SDS011;62979;55.720;37.606;2022-12-13T08:54:07;5.63;;;4.25;;
74495;SDS011;62979;55.720;37.606;2022-12-13T08:56:34;6.90;;;4.63;;
74495;SDS011;62979;55.720;37.606;2022-12-13T08:59:01;5.50;;;4.75;;
74495;SDS011;62979;55.720;37.606;2022-12-13T09:01:28;6.95;;;5.53;;
74495;SDS011;62979;55.720;37.606;2022-12-13T09:03:56;9.32;;;4.43;;
74495;SDS011;62979;55.720;37.606;2022-12-13T09:06:23;5.10;;;4.22;;
74495;SDS011;62979;55.720;37.606;2022-12-13T09:08:51;6.10;;;4.60;;
74495;SDS011;62979;55.720;37.606;2022-12-13T09:13:45;4.68;;;2.92;;
74495;SDS011;62979;55.720;37.606;2022-12-13T09:16:14;3.78;;;2.88;;
74495;SDS011;62979;55.720;37.606;2022-12-13T09:18:43;2.53;;;2.33;;
74495;SDS011;62979;55.720;37.606;2022-12-13T09:21:13;2.47;;;2.35;;
74495;SDS011;62979;55.720;37.606;2022-12-13T09:23:40;1.65;;;1.55;;
74495;SDS011;62979;55.720;37.606;2022-12-13T09:26:08;2.13;;;1.90;;
74495;SDS011;62979;55.720;37.606;2022-12-13T09:28:38;2.13;;;2.03;;
74495;SDS011;62979;55.720;37.606;2022-12-13T09:31:05;2.58;;;2.38;;
74495;SDS011;62979;55.720;37.606;2022-12-13T09:33:33;2.03;;;1.83;;
74495;SDS011;62979;55.720;37.606;2022-12-13T09:36:02;2.13;;;1.83;;
74495;SDS011;62979;55.720;37.606;2022-12-13T09:38:32;6.40;;;3.08;;
74495;SDS011;62979;55.720;37.606;2022-12-13T09:41:02;2.53;;;2.22;;
74495;SDS011;62979;55.720;37.606;2022-12-13T09:43:41;2.40;;;2.22;;
74495;SDS011;62979;55.720;37.606;2022-12-13T09:46:12;2.47;;;2.20;;
74495;SDS011;62979;55.720;37.606;2022-12-13T09:48:52;2.85;;;2.33;;
74495;SDS011;62979;55.720;37.606;2022-12-13T09:51:21;2.60;;;2.10;;
74495;SDS011;62979;55.720;37.606;2022-12-13T09:53:52;2.55;;;2.35;;
74495;SDS011;62979;55.720;37.606;2022-12-13T09:56:20;1.98;;;1.88;;
74495;SDS011;62979;55.720;37.606;2022-12-13T09:58:49;4.20;;;1.58;;
74495;SDS011;62979;55.720;37.606;2022-12-13T10:01:19;2.95;;;2.65;;
74495;SDS011;62979;55.720;37.606;2022-12-13T10:03:47;2.75;;;2.55;;
74495;SDS011;62979;55.720;37.606;2022-12-13T10:06:18;4.18;;;2.70;;
74495;SDS011;62979;55.720;37.606;2022-12-13T10:08:48;3.53;;;2.90;;
74495;SDS011;62979;55.720;37.606;2022-12-13T10:11:20;3.25;;;2.95;;
74495;SDS011;62979;55.720;37.606;2022-12-13T10:13:49;3.10;;;2.83;;
74495;SDS011;62979;55.720;37.606;2022-12-13T10:16:25;2.60;;;2.40;;
74495;SDS011;62979;55.720;37.606;2022-12-13T10:19:08;4.47;;;3.38;;
74495;SDS011;62979;55.720;37.606;2022-12-13T10:21:43;3.53;;;3.22;;
74495;SDS011;62979;55.720;37.606;2022-12-13T10:24:12;2.85;;;2.65;;
74495;SDS011;62979;55.720;37.606;2022-12-13T10:26:47;3.75;;;3.45;;
74495;SDS011;62979;55.720;37.606;2022-12-13T10:31:41;5.55;;;2.38;;
74495;SDS011;62979;55.720;37.606;2022-12-13T10:34:15;5.25;;;4.80;;
74495;SDS011;62979;55.720;37.606;2022-12-13T10:36:49;5.22;;;4.18;;
74495;SDS011;62979;55.720;37.606;2022-12-13T10:39:17;5.43;;;3.47;;
74495;SDS011;62979;55.720;37.606;2022-12-13T10:42:08;6.50;;;4.43;;
74495;SDS011;62979;55.720;37.606;2022-12-13T10:44:39;3.10;;;2.25;;
74495;SDS011;62979;55.720;37.606;2022-12-13T10:47:12;5.25;;;4.45;;
74495;SDS011;62979;55.720;37.606;2022-12-13T10:49:48;4.07;;;3.47;;
74495;SDS011;62979;55.720;37.606;2022-12-13T10:52:23;4.47;;;4.07;;
74495;SDS011;62979;55.720;37.606;2022-12-13T10:54:55;6.55;;;4.68;;
74495;SDS011;62979;55.720;37.606;2022-12-13T10:57:28;7.50;;;5.75;;
74495;SDS011;62979;55.720;37.606;2022-12-13T10:59:57;6.88;;;6.18;;
74495;SDS011;62979;55.720;37.606;2022-12-13T11:02:27;7.75;;;5.45;;
74495;SDS011;62979;55.720;37.606;2022-12-13T11:05:15;8.43;;;5.07;;
74495;SDS011;62979;55.720;37.606;2022-12-13T11:07:50;4.85;;;4.10;;
74495;SDS011;62979;55.720;37.606;2022-12-13T11:10:21;5.45;;;4.25;;
74495;SDS011;62979;55.720;37.606;2022-12-13T11:12:55;6.03;;;5.45;;
74495;SDS011;62979;55.720;37.606;2022-12-13T11:15:27;5.32;;;4.18;;
74495;SDS011;62979;55.720;37.606;2022-12-13T11:17:58;6.18;;;4.10;;
74495;SDS011;62979;55.720;37.606;2022-12-13T11:20:30;6.20;;;5.38;;
74495;SDS011;62979;55.720;37.606;2022-12-13T11:23:01;6.97;;;4.82;;
74495;SDS011;62979;55.720;37.606;2022-12-13T11:25:34;6.38;;;5.28;;
74495;SDS011;62979;55.720;37.606;2022-12-13T11:28:11;6.32;;;5.70;;
74495;SDS011;62979;55.720;37.606;2022-12-13T11:30:56;9.65;;;3.83;;
74495;SDS011;62979;55.720;37.606;2022-12-13T11:33:41;6.75;;;5.75;;
74495;SDS011;62979;55.720;37.606;2022-12-13T11:36:22;5.75;;;5.00;;
74495;SDS011;62979;55.720;37.606;2022-12-13T11:39:09;3.95;;;3.47;;
74495;SDS011;62979;55.720;37.606;2022-12-13T11:41:47;5.97;;;3.67;;
74495;SDS011;62979;55.720;37.606;2022-12-13T11:44:24;8.40;;;6.60;;
74495;SDS011;62979;55.720;37.606;2022-12-13T11:47:05;8.82;;;5.82;;
74495;SDS011;62979;55.720;37.606;2022-12-13T11:49:41;6.88;;;4.85;;
74495;SDS011;62979;55.720;37.606;2022-12-13T11:52:13;9.20;;;4.07;;
74495;SDS011;62979;55.720;37.606;2022-12-13T11:54:49;8.60;;;5.43;;
74495;SDS011;62979;55.720;37.606;2022-12-13T11:57:28;3.33;;;3.00;;
74495;SDS011;62979;55.720;37.606;2022-12-13T12:00:13;9.70;;;7.15;;
74495;SDS011;62979;55.720;37.606;2022-12-13T12:02:57;8.13;;;5.55;;
74495;SDS011;62979;55.720;37.606;2022-12-13T12:05:40;5.53;;;4.65;;
74495;SDS011;62979;55.720;37.606;2022-12-13T12:08:15;7.82;;;6.20;;
74495;SDS011;62979;55.720;37.606;2022-12-13T12:10:55;7.53;;;5.47;;
74495;SDS011;62979;55.720;37.606;2022-12-13T12:13:33;7.40;;;5.68;;
74495;SDS011;62979;55.720;37.606;2022-12-13T12:16:09;5.03;;;4.10;;
74495;SDS011;62979;55.720;37.606;2022-12-13T12:18:44;7.30;;;6.05;;
74495;SDS011;62979;55.720;37.606;2022-12-13T12:21:15;7.53;;;5.53;;
74495;SDS011;62979;55.720;37.606;2022-12-13T12:24:00;7.40;;;6.07;;
74495;SDS011;62979;55.720;37.606;2022-12-13T12:26:46;7.10;;;5.78;;
74495;SDS011;62979;55.720;37.606;2022-12-13T12:29:28;8.32;;;5.40;;
74495;SDS011;62979;55.720;37.606;2022-12-13T12:34:59;3.65;;;3.35;;
74495;SDS011;62979;55.720;37.606;2022-12-13T12:37:48;8.18;;;5.35;;
74495;SDS011;62979;55.720;37.606;2022-12-13T12:40:30;6.90;;;5.97;;
74495;SDS011;62979;55.720;37.606;2022-12-13T12:43:21;7.15;;;5.45;;
74495;SDS011;62979;55.720;37.606;2022-12-13T12:45:59;9.05;;;5.55;;
74495;SDS011;62979;55.720;37.606;2022-12-13T12:49:04;6.00;;;4.97;;
74495;SDS011;62979;55.720;37.606;2022-12-13T12:51:58;7.00;;;4.38;;
74495;SDS011;62979;55.720;37.606;2022-12-13T12:54:38;7.50;;;5.25;;
74495;SDS011;62979;55.720;37.606;2022-12-13T12:57:19;6.90;;;5.95;;
74495;SDS011;62979;55.720;37.606;2022-12-13T12:59:59;10.73;;;6.63;;
74495;SDS011;62979;55.720;37.606;2022-12-13T13:02:32;7.82;;;5.68;;
74495;SDS011;62979;55.720;37.606;2022-12-13T13:05:12;7.07;;;4.80;;
74495;SDS011;62979;55.720;37.606;2022-12-13T13:07:48;8.48;;;6.80;;
74495;SDS011;62979;55.720;37.606;2022-12-13T13:10:22;9.95;;;5.35;;
74495;SDS011;62979;55.720;37.606;2022-12-13T13:12:51;8.40;;;6.15;;
74495;SDS011;62979;55.720;37.606;2022-12-13T13:21:30;8.75;;;6.43;;
74495;SDS011;62979;55.720;37.606;2022-12-13T13:24:20;5.97;;;4.63;;
74495;SDS011;62979;55.720;37.606;2022-12-13T13:26:50;8.75;;;6.57;;
74495;SDS011;62979;55.720;37.606;2022-12-13T13:41:38;10.25;;;5.60;;
74495;SDS011;62979;55.720;37.606;2022-12-13T13:47:35;9.57;;;6.63;;
74495;SDS011;62979;55.720;37.606;2022-12-13T14:00:31;7.32;;;5.85;;
74495;SDS011;62979;55.720;37.606;2022-12-13T14:10:24;6.75;;;6.00;;
74495;SDS011;62979;55.720;37.606;2022-12-13T14:16:56;6.93;;;5.50;;
74495;SDS011;62979;55.720;37.606;2022-12-13T14:20:05;7.75;;;6.05;;
74495;SDS011;62979;55.720;37.606;2022-12-13T14:23:07;10.38;;;5.85;;
74495;SDS011;62979;55.720;37.606;2022-12-13T14:25:56;11.43;;;5.78;;
74495;SDS011;62979;55.720;37.606;2022-12-13T14:28:54;8.75;;;5.85;;
74495;SDS011;62979;55.720;37.606;2022-12-13T14:31:27;7.97;;;6.10;;
74495;SDS011;62979;55.720;37.606;2022-12-13T14:34:02;7.60;;;4.80;;
74495;SDS011;62979;55.720;37.606;2022-12-13T14:36:32;7.75;;;5.75;;
74495;SDS011;62979;55.720;37.606;2022-12-13T14:39:04;7.93;;;5.85;;
74495;SDS011;62979;55.720;37.606;2022-12-13T14:41:45;7.32;;;6.53;;
74495;SDS011;62979;55.720;37.606;2022-12-13T14:44:14;8.90;;;6.47;;
74495;SDS011;62979;55.720;37.606;2022-12-13T14:46:48;8.82;;;7.47;;
74495;SDS011;62979;55.720;37.606;2022-12-13T14:49:18;5.88;;;5.18;;
74495;SDS011;62979;55.720;37.606;2022-12-13T14:51:46;9.10;;;6.25;;
74495;SDS011;62979;55.720;37.606;2022-12-13T14:54:19;9.70;;;5.95;;
74495;SDS011;62979;55.720;37.606;2022-12-13T14:56:56;6.53;;;5.35;;
74495;SDS011;62979;55.720;37.606;2022-12-13T14:59:26;8.38;;;5.55;;
74495;SDS011;62979;55.720;37.606;2022-12-13T15:04:27;6.63;;;5.93;;
74495;SDS011;62979;55.720;37.606;2022-12-13T15:06:58;9.13;;;6.32;;
74495;SDS011;62979;55.720;37.606;2022-12-13T15:09:33;5.32;;;4.47;;
74495;SDS011;62979;55.720;37.606;2022-12-13T15:12:08;11.02;;;4.82;;
74495;SDS011;62979;55.720;37.606;2022-12-13T15:14:40;5.30;;;4.80;;
74495;SDS011;62979;55.720;37.606;2022-12-13T15:17:24;6.82;;;5.65;;
74495;SDS011;62979;55.720;37.606;2022-12-13T15:19:57;6.97;;;5.80;;
74495;SDS011;62979;55.720;37.606;2022-12-13T15:22:26;6.55;;;4.85;;
74495;SDS011;62979;55.720;37.606;2022-12-13T15:24:54;5.32;;;3.70;;
74495;SDS011;62979;55.720;37.606;2022-12-13T15:27:23;7.28;;;5.15;;
74495;SDS011;62979;55.720;37.606;2022-12-13T15:29:51;10.63;;;7.60;;
74495;SDS011;62979;55.720;37.606;2022-12-13T15:32:19;11.15;;;7.95;;
74495;SDS011;62979;55.720;37.606;2022-12-13T15:34:48;10.45;;;6.85;;
74495;SDS011;62979;55.720;37.606;2022-12-13T15:39:47;8.05;;;4.75;;
74495;SDS011;62979;55.720;37.606;2022-12-13T15:42:28;10.55;;;7.28;;
74495;SDS011;62979;55.720;37.606;2022-12-13T15:45:00;9.55;;;6.63;;
74495;SDS011;62979;55.720;37.606;2022-12-13T15:47:30;9.05;;;7.68;;
74495;SDS011;62979;55.720;37.606;2022-12-13T15:49:58;9.75;;;7.28;;
74495;SDS011;62979;55.720;37.606;2022-12-13T15:52:29;8.80;;;6.45;;
74495;SDS011;62979;55.720;37.606;2022-12-13T15:55:01;9.70;;;7.68;;
74495;SDS011;62979;55.720;37.606;2022-12-13T15:57:52;9.75;;;6.70;;
74495;SDS011;62979;55.720;37.606;2022-12-13T16:00:22;9.05;;;6.57;;
74495;SDS011;62979;55.720;37.606;2022-12-13T16:02:53;8.70;;;7.55;;
74495;SDS011;62979;55.720;37.606;2022-12-13T16:05:24;12.38;;;7.63;;
74495;SDS011;62979;55.720;37.606;2022-12-13T16:07:55;10.05;;;8.38;;
74495;SDS011;62979;55.720;37.606;2022-12-13T16:10:26;10.68;;;7.22;;
74495;SDS011;62979;55.720;37.606;2022-12-13T16:12:58;10.20;;;6.18;;
74495;SDS011;62979;55.720;37.606;2022-12-13T16:15:28;10.98;;;7.40;;